createdAt,value
2019-01-29T00:01:12.027Z,97559.58
2019-01-29T00:03:40.379Z,97562.14
2019-01-29T00:06:09.599Z,97529.23
2019-01-29T00:08:38.048Z,97571.14
2019-01-29T00:11:06.359Z,97583.69
2019-01-29T00:13:35.360Z,97578.52
2019-01-29T00:16:03.971Z,97577.36
2019-01-29T00:18:32.066Z,97561.80
2019-01-29T00:21:01.361Z,97610.39
2019-01-29T00:23:30.450Z,97592.36
2019-01-29T00:25:59.501Z,97584.73
2019-01-29T00:28:28.172Z,97588.32
2019-01-29T00:30:56.373Z,97576.59
2019-01-29T00:33:24.801Z,97604.62
2019-01-29T00:35:53.904Z,97611.86
2019-01-29T00:38:22.333Z,97617.02
2019-01-29T00:40:50.791Z,97620.47
2019-01-29T00:43:18.862Z,97624.33
2019-01-29T00:45:47.025Z,97630.80
2019-01-29T00:48:16.444Z,97627.91
2019-01-29T00:50:44.335Z,97623.16
2019-01-29T00:53:13.213Z,97650.30
2019-01-29T00:55:41.439Z,97630.93
2019-01-29T00:58:09.860Z,97649.77
2019-01-29T01:00:38.268Z,97658.44
2019-01-29T01:03:06.602Z,97656.44
2019-01-29T01:05:35.108Z,97662.16
2019-01-29T01:08:03.452Z,97672.73
2019-01-29T01:10:31.470Z,97653.29
2019-01-29T01:13:00.883Z,97666.73
2019-01-29T01:15:29.418Z,97675.41
2019-01-29T01:17:57.640Z,97682.47
2019-01-29T01:20:26.375Z,97698.17
2019-01-29T01:22:54.182Z,97710.50
2019-01-29T01:25:22.094Z,97703.86
2019-01-29T01:27:50.188Z,97701.34
2019-01-29T01:30:18.988Z,97697.61
2019-01-29T01:32:47.825Z,97691.47
2019-01-29T01:35:16.781Z,97712.61
2019-01-29T01:37:45.150Z,97723.64
2019-01-29T01:40:16.776Z,97721.14
2019-01-29T01:42:45.218Z,97724.63
2019-01-29T01:45:13.323Z,97732.25
2019-01-29T01:47:41.294Z,97728.73
2019-01-29T01:50:10.581Z,97728.14
2019-01-29T01:52:38.901Z,97732.25
2019-01-29T01:55:09.044Z,97742.80
2019-01-29T01:57:37.101Z,97737.34
2019-01-29T02:00:06.484Z,97742.44
2019-01-29T02:02:34.923Z,97735.63
2019-01-29T02:05:03.648Z,97749.67
2019-01-29T02:07:32.079Z,97739.27
2019-01-29T02:10:00.239Z,97755.09
2019-01-29T02:12:28.735Z,97763.31
2019-01-29T02:14:57.033Z,97763.70
2019-01-29T02:17:25.833Z,97773.53
2019-01-29T02:19:54.525Z,97762.56
2019-01-29T02:22:22.634Z,97782.49
2019-01-29T02:24:51.348Z,97779.22
2019-01-29T02:27:19.439Z,97785.86
2019-01-29T02:29:47.635Z,97794.67
2019-01-29T02:32:15.805Z,97783.78
2019-01-29T02:34:43.759Z,97788.55
2019-01-29T02:37:11.850Z,97788.86
2019-01-29T02:39:39.969Z,97791.88
2019-01-29T02:42:08.267Z,97795.66
2019-01-29T02:44:37.167Z,97802.60
2019-01-29T02:47:04.910Z,97806.00
2019-01-29T02:49:32.890Z,97806.98
2019-01-29T02:52:00.958Z,97808.14
2019-01-29T02:54:29.064Z,97806.21
2019-01-29T02:56:57.244Z,97812.14
2019-01-29T02:59:25.757Z,97815.33
2019-01-29T03:01:53.956Z,97816.31
2019-01-29T03:04:21.999Z,97822.09
2019-01-29T03:06:50.248Z,97820.61
2019-01-29T03:09:18.468Z,97821.13
2019-01-29T03:11:46.768Z,97828.86
2019-01-29T03:14:15.203Z,97831.28
2019-01-29T03:16:43.603Z,97834.97
2019-01-29T03:19:11.740Z,97842.89
2019-01-29T03:21:40.460Z,97843.02
2019-01-29T03:24:08.742Z,97848.16
2019-01-29T03:26:37.046Z,97847.69
2019-01-29T03:29:05.756Z,97848.73
2019-01-29T03:31:33.769Z,97855.09
2019-01-29T03:34:02.147Z,97858.28
2019-01-29T03:36:30.277Z,97833.52
2019-01-29T03:38:58.566Z,97852.21
2019-01-29T03:41:26.801Z,97860.81
2019-01-29T03:43:55.334Z,97856.77
2019-01-29T03:46:23.309Z,97863.94
2019-01-29T03:48:51.268Z,97855.60
2019-01-29T03:51:19.406Z,97770.98
2019-01-29T03:53:47.531Z,97805.18
2019-01-29T03:56:15.608Z,97862.09
2019-01-29T03:58:44.035Z,97864.20
2019-01-29T04:01:12.059Z,97861.52
2019-01-29T04:03:40.068Z,97867.92
2019-01-29T04:06:08.645Z,97872.70
2019-01-29T04:08:36.899Z,97880.38
2019-01-29T04:11:05.290Z,97878.84
2019-01-29T04:13:33.881Z,97838.11
2019-01-29T04:16:02.258Z,97873.16
2019-01-29T04:18:30.186Z,97859.87
2019-01-29T04:20:58.416Z,97817.95
2019-01-29T04:23:26.923Z,97880.61
2019-01-29T04:25:55.078Z,97882.19
2019-01-29T04:28:23.028Z,97870.09
2019-01-29T04:30:51.232Z,97889.80
2019-01-29T04:33:19.295Z,97895.28
2019-01-29T04:35:47.349Z,97886.30
2019-01-29T04:38:15.225Z,97827.27
2019-01-29T04:40:43.103Z,97851.93
2019-01-29T04:43:13.226Z,97888.70
2019-01-29T04:45:39.912Z,97893.43
2019-01-29T04:48:07.833Z,97890.75
2019-01-29T04:50:36.291Z,97854.63
2019-01-29T04:53:04.300Z,97900.44
2019-01-29T04:55:32.433Z,97900.59
2019-01-29T04:58:00.869Z,97876.05
2019-01-29T05:00:29.635Z,97874.26
2019-01-29T05:02:57.796Z,97898.96
2019-01-29T05:05:26.251Z,97897.30
2019-01-29T05:07:54.109Z,97898.46
2019-01-29T05:10:29.641Z,97894.69
2019-01-29T05:12:57.649Z,97896.41
2019-01-29T05:15:32.698Z,97879.38
2019-01-29T05:18:00.710Z,97863.39
2019-01-29T05:20:28.974Z,97899.84
2019-01-29T05:22:57.614Z,97896.45
2019-01-29T05:25:25.434Z,97879.36
2019-01-29T05:27:53.480Z,97910.45
2019-01-29T05:30:23.042Z,97913.67
2019-01-29T05:32:51.141Z,97904.51
2019-01-29T05:35:19.505Z,97922.25
2019-01-29T05:37:47.652Z,97926.09
2019-01-29T05:40:19.032Z,97924.42
2019-01-29T05:42:47.627Z,97938.45
2019-01-29T05:45:17.415Z,97945.63
2019-01-29T05:47:45.273Z,97947.32
2019-01-29T05:50:17.811Z,97911.82
2019-01-29T05:52:45.732Z,97943.84
2019-01-29T05:55:13.780Z,97959.63
2019-01-29T05:57:41.686Z,97949.44
2019-01-29T06:00:13.129Z,97891.16
2019-01-29T06:02:41.627Z,97930.52
2019-01-29T06:05:09.907Z,97947.20
2019-01-29T06:07:38.321Z,97964.30
2019-01-29T06:10:06.987Z,97965.47
2019-01-29T06:12:35.170Z,97954.07
2019-01-29T06:15:04.556Z,97979.45
2019-01-29T06:17:32.659Z,97973.03
2019-01-29T06:20:00.819Z,97971.42
2019-01-29T06:22:29.209Z,97947.89
2019-01-29T06:24:57.508Z,97917.56
2019-01-29T06:27:25.838Z,97965.89
2019-01-29T06:29:54.166Z,97967.80
2019-01-29T06:32:22.336Z,97965.62
2019-01-29T06:34:51.289Z,97905.78
2019-01-29T06:37:20.227Z,97991.40
2019-01-29T06:39:48.563Z,97986.52
2019-01-29T06:42:16.829Z,97952.44
2019-01-29T06:44:44.704Z,97889.59
2019-01-29T06:47:12.529Z,97994.30
2019-01-29T06:49:40.339Z,98014.25
2019-01-29T06:52:08.158Z,97996.05
2019-01-29T06:54:36.351Z,98001.72
2019-01-29T06:57:05.213Z,98002.25
2019-01-29T06:59:33.157Z,98004.16
2019-01-29T07:02:00.964Z,97995.02
2019-01-29T07:04:28.797Z,97997.31
2019-01-29T07:06:57.509Z,98004.02
2019-01-29T07:09:26.395Z,97992.72
2019-01-29T07:11:59.909Z,97975.64
2019-01-29T07:14:27.941Z,98003.80
2019-01-29T07:17:06.110Z,98002.28
2019-01-29T07:19:43.933Z,98000.52
2019-01-29T07:22:11.770Z,98010.55
2019-01-29T07:24:42.975Z,97946.33
2019-01-29T07:27:08.433Z,98025.83
2019-01-29T07:29:37.580Z,98046.27
2019-01-29T07:32:06.505Z,98000.28
2019-01-29T07:34:37.316Z,98060.00
2019-01-29T07:37:05.534Z,98058.37
2019-01-29T07:39:33.833Z,98045.39
2019-01-29T07:42:01.990Z,98056.50
2019-01-29T07:44:30.924Z,98062.12
2019-01-29T07:46:59.567Z,98060.31
2019-01-29T07:49:27.497Z,98059.33
2019-01-29T07:51:55.493Z,98063.00
2019-01-29T07:54:23.670Z,98063.77
2019-01-29T07:56:55.219Z,98073.16
2019-01-29T07:59:33.101Z,98065.53
2019-01-29T08:01:54.498Z,97883.89
2019-01-29T08:04:22.544Z,98069.64
2019-01-29T08:06:50.686Z,98065.09
2019-01-29T08:09:19.170Z,98059.16
2019-01-29T08:11:47.676Z,98064.97
2019-01-29T08:14:16.757Z,98070.39
2019-01-29T08:16:45.559Z,98035.40
2019-01-29T08:19:14.717Z,98066.61
2019-01-29T08:21:43.831Z,98070.88
2019-01-29T08:24:11.756Z,98063.56
2019-01-29T08:26:40.057Z,98083.54
2019-01-29T08:29:08.098Z,98079.38
2019-01-29T08:31:36.791Z,98079.38
2019-01-29T08:34:05.177Z,98084.11
2019-01-29T08:36:33.262Z,98083.46
2019-01-29T08:39:01.582Z,98071.41
2019-01-29T08:41:29.564Z,98084.06
2019-01-29T08:43:57.985Z,98087.73
2019-01-29T08:46:25.832Z,98093.84
2019-01-29T08:48:53.637Z,98122.19
2019-01-29T08:51:22.927Z,98099.00
2019-01-29T08:53:50.970Z,98075.98
2019-01-29T08:56:19.728Z,98097.27
2019-01-29T08:58:47.635Z,98077.63
2019-01-29T09:01:15.685Z,98096.32
2019-01-29T09:03:43.911Z,98047.25
2019-01-29T09:06:14.406Z,98098.11
2019-01-29T09:08:42.517Z,98094.12
2019-01-29T09:11:11.085Z,98082.41
2019-01-29T09:13:40.521Z,98091.49
2019-01-29T09:16:07.425Z,98002.80
2019-01-29T09:18:36.521Z,98073.42
2019-01-29T09:21:04.759Z,98073.66
2019-01-29T09:23:37.083Z,98062.63
2019-01-29T09:26:05.130Z,98098.77
2019-01-29T09:28:33.433Z,98103.45
2019-01-29T09:31:03.142Z,98105.63
2019-01-29T09:33:31.182Z,98101.91
2019-01-29T09:35:59.776Z,98095.69
2019-01-29T09:38:28.997Z,98062.03
2019-01-29T09:41:01.473Z,98091.63
2019-01-29T09:43:29.771Z,98040.27
2019-01-29T09:45:58.910Z,98147.98
2019-01-29T09:48:28.526Z,98092.98
2019-01-29T09:50:56.371Z,98075.19
2019-01-29T09:53:24.347Z,98063.32
2019-01-29T09:55:52.519Z,98092.27
2019-01-29T09:58:20.851Z,98059.08
2019-01-29T10:00:48.784Z,98098.48
2019-01-29T10:03:17.815Z,98087.97
2019-01-29T10:05:46.757Z,98093.64
2019-01-29T10:08:15.256Z,98023.20
2019-01-29T10:10:43.807Z,98091.09
2019-01-29T10:13:12.642Z,98081.86
2019-01-29T10:15:41.518Z,98090.12
2019-01-29T10:18:09.646Z,98081.13
2019-01-29T10:20:38.905Z,98079.02
2019-01-29T10:23:07.199Z,98045.61
2019-01-29T10:25:37.829Z,98060.65
2019-01-29T10:28:04.895Z,98026.02
2019-01-29T10:30:32.987Z,98056.93
2019-01-29T10:33:01.525Z,98074.02
2019-01-29T10:35:29.981Z,98059.33
2019-01-29T10:37:57.996Z,98038.11
2019-01-29T10:40:26.630Z,98069.27
2019-01-29T10:42:54.762Z,98069.30
2019-01-29T10:45:23.829Z,98055.30
2019-01-29T10:47:52.077Z,98064.95
2019-01-29T10:50:22.143Z,98044.63
2019-01-29T10:52:50.482Z,98049.73
2019-01-29T10:55:18.410Z,98048.42
2019-01-29T10:57:46.853Z,98009.91
2019-01-29T11:00:20.773Z,98060.31
2019-01-29T11:02:49.262Z,98055.80
2019-01-29T11:06:19.777Z,98011.05
2019-01-29T11:08:48.051Z,98054.80
2019-01-29T11:11:16.267Z,98034.53
2019-01-29T11:13:44.585Z,98046.61
2019-01-29T11:16:15.965Z,97951.25
2019-01-29T11:18:43.803Z,98048.63
2019-01-29T11:21:11.798Z,98048.30
2019-01-29T11:23:39.927Z,98048.38
2019-01-29T11:26:07.845Z,98051.36
2019-01-29T11:28:36.044Z,98049.31
2019-01-29T11:31:04.511Z,98042.51
2019-01-29T11:33:32.439Z,98050.06
2019-01-29T11:36:00.336Z,98026.30
2019-01-29T11:38:28.570Z,98043.96
2019-01-29T11:40:57.149Z,98023.70
2019-01-29T11:43:25.628Z,98046.24
2019-01-29T11:45:54.290Z,98038.91
2019-01-29T11:48:22.347Z,98040.28
2019-01-29T11:50:50.205Z,98038.22
2019-01-29T11:53:18.083Z,98044.88
2019-01-29T11:55:45.962Z,98043.02
2019-01-29T11:58:14.257Z,98097.00
2019-01-29T12:00:48.957Z,98001.08
2019-01-29T12:03:16.800Z,98019.49
2019-01-29T12:05:45.184Z,98040.51
2019-01-29T12:08:13.298Z,98044.34
2019-01-29T12:10:41.973Z,98064.50
2019-01-29T12:13:10.306Z,98032.48
2019-01-29T12:15:38.271Z,98019.43
2019-01-29T12:18:06.616Z,98025.84
2019-01-29T12:20:34.788Z,98021.91
2019-01-29T12:23:02.729Z,98023.81
2019-01-29T12:25:30.557Z,98020.45
2019-01-29T12:27:58.661Z,98015.50
2019-01-29T12:30:26.801Z,98024.22
2019-01-29T12:32:55.569Z,98005.48
2019-01-29T12:35:23.944Z,98012.22
2019-01-29T12:37:51.749Z,98010.31
2019-01-29T12:40:19.868Z,98007.70
2019-01-29T12:42:47.727Z,98003.52
2019-01-29T12:45:15.643Z,98011.45
2019-01-29T12:47:43.580Z,98002.58
2019-01-29T12:50:15.045Z,97999.83
2019-01-29T12:52:47.713Z,97996.09
2019-01-29T12:55:15.668Z,97994.95
2019-01-29T12:57:43.849Z,97989.83
2019-01-29T13:00:14.676Z,97997.77
2019-01-29T13:02:42.517Z,97989.13
2019-01-29T13:05:11.648Z,97991.20
2019-01-29T13:07:39.540Z,97987.16
2019-01-29T13:10:12.149Z,97982.02
2019-01-29T13:12:40.726Z,97982.30
2019-01-29T13:15:09.605Z,97980.08
2019-01-29T13:17:37.466Z,97987.09
2019-01-29T13:20:05.798Z,97958.58
2019-01-29T13:22:33.670Z,97976.91
2019-01-29T13:25:03.464Z,97970.41
2019-01-29T13:27:31.932Z,97979.41
2019-01-29T13:30:01.175Z,97971.86
2019-01-29T13:32:29.596Z,97969.94
2019-01-29T13:34:58.109Z,97973.05
2019-01-29T13:37:26.302Z,97959.97
2019-01-29T13:39:54.240Z,97955.67
2019-01-29T13:42:22.226Z,97955.20
2019-01-29T13:44:50.367Z,97940.46
2019-01-29T13:47:19.369Z,97950.98
2019-01-29T13:49:47.726Z,97913.86
2019-01-29T13:52:17.123Z,97909.17
2019-01-29T13:54:45.066Z,97945.52
2019-01-29T13:57:13.470Z,97947.88
2019-01-29T13:59:42.379Z,97951.77
2019-01-29T14:02:11.403Z,97950.20
2019-01-29T14:04:40.485Z,97926.85
2019-01-29T14:07:15.008Z,97947.00
2019-01-29T14:09:47.479Z,97896.99
2019-01-29T14:12:16.007Z,97942.40
2019-01-29T14:14:44.150Z,97924.95
2019-01-29T14:17:15.065Z,97889.69
2019-01-29T14:19:47.990Z,97948.03
2019-01-29T14:22:21.771Z,97904.56
2019-01-29T14:24:50.011Z,97944.60
2019-01-29T14:27:18.843Z,97941.85
2019-01-29T14:29:50.587Z,97935.48
2019-01-29T14:32:19.409Z,97927.20
2019-01-29T14:34:48.770Z,97876.78
2019-01-29T14:37:20.018Z,97861.97
2019-01-29T14:40:07.098Z,97933.72
2019-01-29T14:42:35.554Z,97936.24
2019-01-29T14:45:04.774Z,97933.80
2019-01-29T14:47:32.838Z,97930.36
2019-01-29T14:50:01.632Z,97914.23
2019-01-29T14:52:31.003Z,97923.05
2019-01-29T14:54:59.544Z,97915.50
2019-01-29T14:57:29.471Z,97916.42
2019-01-29T14:59:57.518Z,97918.73
2019-01-29T15:02:25.979Z,97915.06
2019-01-29T15:04:53.871Z,97915.75
2019-01-29T15:07:29.904Z,97899.80
2019-01-29T15:09:51.314Z,97906.89
2019-01-29T15:12:19.827Z,97914.47
2019-01-29T15:14:47.754Z,97907.81
2019-01-29T15:17:21.475Z,97915.53
2019-01-29T15:19:52.207Z,97887.97
2019-01-29T15:22:21.310Z,97918.73
2019-01-29T15:24:49.690Z,97903.77
2019-01-29T15:27:18.286Z,97896.89
2019-01-29T15:29:51.431Z,97901.55
2019-01-29T15:32:25.665Z,97836.67
2019-01-29T15:34:55.051Z,97716.08
2019-01-29T15:37:25.404Z,97896.96
2019-01-29T15:40:10.806Z,97900.56
2019-01-29T15:42:40.639Z,97892.39
2019-01-29T15:45:12.976Z,97899.70
2019-01-29T15:47:41.228Z,97899.25
2019-01-29T15:52:48.623Z,97892.95
2019-01-29T15:55:13.536Z,97889.43
2019-01-29T15:57:43.405Z,97894.78
2019-01-29T16:00:15.290Z,97873.91
2019-01-29T16:02:43.254Z,97891.47
2019-01-29T16:05:14.471Z,97888.16
2019-01-29T16:07:42.806Z,97886.84
2019-01-29T16:10:13.543Z,97887.23
2019-01-29T16:12:41.857Z,97886.06
2019-01-29T16:15:11.780Z,97871.30
2019-01-29T16:17:40.364Z,97884.13
2019-01-29T16:20:10.518Z,97865.67
2019-01-29T16:22:38.484Z,97891.63
2019-01-29T16:25:08.283Z,97857.25
2019-01-29T16:27:38.688Z,97890.86
2019-01-29T16:30:11.540Z,97890.11
2019-01-29T16:32:39.858Z,97891.55
2019-01-29T16:35:13.381Z,97892.08
2019-01-29T16:37:43.148Z,97892.66
2019-01-29T16:40:15.634Z,97890.13
2019-01-29T16:42:47.052Z,97888.94
2019-01-29T16:45:21.121Z,97943.15
2019-01-29T16:47:49.569Z,97888.09
2019-01-29T16:50:22.461Z,97867.05
2019-01-29T16:52:52.510Z,97884.28
2019-01-29T16:55:34.003Z,97886.51
2019-01-29T16:58:11.030Z,97738.28
2019-01-29T17:01:06.721Z,97878.56
2019-01-29T17:03:37.093Z,97867.41
2019-01-29T17:06:12.554Z,97877.50
2019-01-29T17:08:42.931Z,97866.91
2019-01-29T17:11:14.631Z,97865.91
2019-01-29T17:13:44.075Z,97867.99
2019-01-29T17:16:14.139Z,97862.04
2019-01-29T17:18:44.277Z,97860.80
2019-01-29T17:21:13.020Z,97864.11
2019-01-29T17:23:42.797Z,97859.41
2019-01-29T17:26:12.024Z,97856.64
2019-01-29T17:28:40.517Z,97851.73
2019-01-29T17:31:09.951Z,97818.64
2019-01-29T17:33:40.477Z,97849.92
2019-01-29T17:36:09.481Z,97850.04
2019-01-29T17:38:44.807Z,97856.77
2019-01-29T17:41:12.524Z,97857.27
2019-01-29T17:43:41.088Z,97812.09
2019-01-29T17:46:10.441Z,97847.27
2019-01-29T17:48:39.735Z,97844.59
2019-01-29T17:51:08.183Z,97746.08
2019-01-29T17:53:37.370Z,97836.73
2019-01-29T17:56:05.799Z,97833.84
2019-01-29T17:58:34.849Z,97831.53
2019-01-29T18:01:04.289Z,97833.73
2019-01-29T18:03:33.446Z,97829.09
2019-01-29T18:06:08.832Z,97826.31
2019-01-29T18:08:37.247Z,97814.45
2019-01-29T18:11:07.504Z,97820.58
2019-01-29T18:13:36.595Z,97813.25
2019-01-29T18:16:10.431Z,97816.64
2019-01-29T18:18:41.543Z,97809.53
2019-01-29T18:21:15.688Z,97804.63
2019-01-29T18:23:49.143Z,97802.69
2019-01-29T18:26:20.002Z,97798.36
2019-01-29T18:28:50.666Z,97800.14
2019-01-29T18:31:22.335Z,97720.66
2019-01-29T18:33:51.314Z,97794.36
2019-01-29T18:36:19.395Z,97793.25
2019-01-29T18:38:47.556Z,97794.73
2019-01-29T18:41:19.310Z,97788.34
2019-01-29T18:43:52.133Z,97774.11
2019-01-29T18:46:22.295Z,97771.23
2019-01-29T18:48:57.182Z,97782.64
2019-01-29T18:51:25.687Z,97732.13
2019-01-29T18:53:56.895Z,97682.11
2019-01-29T18:56:27.822Z,97779.51
2019-01-29T18:58:56.780Z,97775.05
2019-01-29T19:01:25.644Z,97769.52
2019-01-29T19:03:55.283Z,97769.31
2019-01-29T19:06:24.967Z,97735.73
2019-01-29T19:08:53.104Z,97764.59
2019-01-29T19:11:22.204Z,97757.69
2019-01-29T19:13:50.725Z,97756.27
2019-01-29T19:16:23.922Z,97748.59
2019-01-29T19:18:52.797Z,97746.42
2019-01-29T19:21:20.795Z,97739.75
2019-01-29T19:23:49.998Z,97749.95
2019-01-29T19:26:19.414Z,97746.71
2019-01-29T19:28:47.765Z,97741.92
2019-01-29T19:31:17.125Z,97739.52
2019-01-29T19:33:47.275Z,97687.34
2019-01-29T19:36:16.849Z,97733.92
2019-01-29T19:38:45.571Z,97731.57
2019-01-29T19:41:17.507Z,97730.97
2019-01-29T19:43:49.567Z,97727.02
2019-01-29T19:46:18.718Z,97717.88
2019-01-29T19:48:53.355Z,97719.70
2019-01-29T19:51:22.561Z,97721.66
2019-01-29T19:53:50.991Z,97725.77
2019-01-29T19:56:22.036Z,97717.17
2019-01-29T19:58:52.499Z,97710.56
2019-01-29T20:01:21.087Z,97715.80
2019-01-29T20:03:50.448Z,97715.20
2019-01-29T20:06:20.109Z,97706.76
2019-01-29T20:08:54.331Z,97600.35
2019-01-29T20:11:24.283Z,97706.28
2019-01-29T20:13:55.628Z,97706.63
2019-01-29T20:16:24.334Z,97698.36
2019-01-29T20:18:52.214Z,97703.03
2019-01-29T20:21:21.933Z,97694.97
2019-01-29T20:23:51.550Z,97698.83
2019-01-29T20:26:19.810Z,97701.36
2019-01-29T20:28:49.567Z,97698.63
2019-01-29T20:31:17.594Z,97691.57
2019-01-29T20:33:46.488Z,97692.31
2019-01-29T20:36:16.473Z,97685.47
2019-01-29T20:38:45.564Z,97676.02
2019-01-29T20:41:15.175Z,97580.32
2019-01-29T20:43:44.332Z,97681.34
2019-01-29T20:46:12.520Z,97653.50
2019-01-29T20:48:43.287Z,97750.60
2019-01-29T20:51:13.844Z,97679.27
2019-01-29T20:53:44.367Z,97670.25
2019-01-29T20:56:12.790Z,97669.86
2019-01-29T20:58:52.088Z,97669.03
2019-01-29T21:01:10.535Z,97648.73
2019-01-29T21:03:39.340Z,97661.20
2019-01-29T21:06:07.764Z,97682.67
2019-01-29T21:08:37.156Z,97659.52
2019-01-29T21:11:06.068Z,97653.95
2019-01-29T21:13:39.592Z,97648.99
2019-01-29T21:16:14.134Z,97640.59
2019-01-29T21:18:43.906Z,97642.00
2019-01-29T21:21:12.536Z,97639.06
2019-01-29T21:23:41.352Z,97633.03
2019-01-29T21:26:12.114Z,97630.42
2019-01-29T21:28:40.640Z,97627.10
2019-01-29T21:31:12.205Z,97627.28
2019-01-29T21:33:41.102Z,97622.18
2019-01-29T21:36:21.541Z,97565.18
2019-01-29T21:39:00.482Z,97366.77
2019-01-29T21:41:29.475Z,97597.38
2019-01-29T21:43:59.093Z,97611.58
2019-01-29T21:46:26.993Z,97614.31
2019-01-29T21:48:55.598Z,97614.97
2019-01-29T21:51:24.454Z,97609.41
2019-01-29T21:53:52.874Z,97598.21
2019-01-29T21:56:21.068Z,97596.37
2019-01-29T21:58:49.012Z,97597.86
2019-01-29T22:01:17.300Z,97577.16
2019-01-29T22:03:45.961Z,97588.44
2019-01-29T22:06:14.138Z,97581.19
2019-01-29T22:08:42.514Z,97587.64
2019-01-29T22:11:11.187Z,97578.97
2019-01-29T22:13:39.452Z,97580.66
2019-01-29T22:16:08.082Z,97575.63
2019-01-29T22:18:37.401Z,97570.53
2019-01-29T22:21:06.143Z,97572.45
2019-01-29T22:23:34.802Z,97541.09
2019-01-29T22:26:03.968Z,97560.98
2019-01-29T22:28:32.388Z,97556.80
2019-01-29T22:31:00.455Z,97498.08
2019-01-29T22:33:28.508Z,97561.69
2019-01-29T22:35:57.166Z,97561.95
2019-01-29T22:38:25.341Z,97566.94
2019-01-29T22:40:53.223Z,97567.26
2019-01-29T22:43:22.499Z,97570.72
2019-01-29T22:45:51.247Z,97568.92
2019-01-29T22:48:21.280Z,97571.59
2019-01-29T22:50:49.752Z,97565.89
2019-01-29T22:53:18.353Z,97559.30
2019-01-29T22:55:49.028Z,97544.80
2019-01-29T22:58:17.250Z,97561.08
2019-01-29T23:01:59.399Z,97552.61
2019-01-29T23:04:30.716Z,97553.55
2019-01-29T23:07:23.815Z,97322.47
2019-01-29T23:09:52.276Z,97545.34
2019-01-29T23:12:20.448Z,97529.44
2019-01-29T23:14:48.439Z,97539.80
2019-01-29T23:17:17.505Z,97539.84
2019-01-29T23:19:45.595Z,97537.41
2019-01-29T23:22:13.779Z,97535.12
2019-01-29T23:24:42.593Z,97524.08
2019-01-29T23:27:10.800Z,97525.35
2019-01-29T23:29:43.522Z,97524.74
2019-01-29T23:32:08.352Z,97522.95
2019-01-29T23:34:36.201Z,97510.89
2019-01-29T23:37:04.769Z,97508.02
2019-01-29T23:39:33.451Z,97509.61
2019-01-29T23:42:02.300Z,97481.79
2019-01-29T23:44:30.489Z,97503.11
2019-01-29T23:46:58.750Z,97492.80
2019-01-29T23:49:27.493Z,97494.65
2019-01-29T23:51:56.186Z,97486.66
2019-01-29T23:54:24.580Z,97483.37
2019-01-29T23:56:52.522Z,97487.06
2019-01-29T23:59:20.738Z,97476.45
